Time;durP1;ratioP1;P1;durP2;ratioP2;P2;SDS_P1;SDS_P2;PMS_P1;PMS_P2;Temp;Humidity;BMP_temperature;BMP_pressure;BME280_temperature;BME280_humidity;BME280_pressure;Samples;Min_cycle;Max_cycle;Signal;HPM_P1;HPM_P2
2021/12/01 06:48:03;;;;;;;9.13;5.90;;;;;;;1.75;85.59;99443.68;1483049;86;28551;-89
2021/12/01 06:50:37;;;;;;;9.30;6.60;;;;;;;1.63;84.94;99448.52;1461160;89;22217;-88
2021/12/01 06:53:04;;;;;;;8.57;6.50;;;;;;;1.63;84.94;99448.52;1463024;89;23307;-89
2021/12/01 06:55:30;;;;;;;9.00;6.80;;;;;;;1.58;85.12;99472.80;1454937;89;21812;-89
2021/12/01 06:57:57;;;;;;;9.33;6.63;;;;;;;1.58;85.12;99472.80;1450914;89;21817;-89
2021/12/01 07:00:25;;;;;;;9.30;6.37;;;;;;;1.50;85.41;99471.27;1455012;89;21973;-89
2021/12/01 07:02:52;;;;;;;7.50;5.60;;;;;;;1.45;85.40;99482.49;1461593;89;21848;-88
2021/12/01 07:05:19;;;;;;;8.93;5.73;;;;;;;1.41;85.63;99484.95;1461661;89;21779;-89
2021/12/01 07:07:45;;;;;;;9.83;6.73;;;;;;;1.40;85.70;99485.91;1462184;89;21786;-89
2021/12/01 07:10:16;;;;;;;13.20;8.90;;;;;;;1.40;85.85;99487.20;1458550;89;21753;-89
2021/12/01 07:12:43;;;;;;;18.10;11.18;;;;;;;1.40;85.99;99483.30;1455527;89;21895;-89
2021/12/01 07:15:11;;;;;;;20.67;13.43;;;;;;;1.39;86.20;99487.69;1457711;89;21450;-90
2021/12/01 07:17:37;;;;;;;12.77;7.80;;;;;;;1.43;86.42;99480.46;1453465;89;21849;-90
2021/12/01 07:20:06;;;;;;;12.10;7.63;;;;;;;1.50;86.46;99482.99;1457435;89;21713;-89
2021/12/01 07:22:33;;;;;;;9.33;6.50;;;;;;;1.60;86.62;99485.27;1461666;89;21822;-90
2021/12/01 07:24:59;;;;;;;8.57;5.70;;;;;;;1.70;86.58;99481.05;1440715;89;21620;-90
2021/12/01 07:27:26;;;;;;;9.03;5.80;;;;;;;1.80;86.53;99484.61;1460664;89;21710;-89
2021/12/01 07:29:52;;;;;;;9.20;5.30;;;;;;;1.91;86.34;99488.20;1461100;89;21731;-90
2021/12/01 07:32:18;;;;;;;12.73;6.63;;;;;;;2.00;86.31;99485.73;1456861;89;21831;-90
2021/12/01 07:34:45;;;;;;;13.07;7.07;;;;;;;2.14;86.04;99482.55;1462544;89;23030;-90
2021/12/01 07:37:15;;;;;;;17.73;8.10;;;;;;;2.32;85.98;99494.67;1452216;89;21724;-90
2021/12/01 07:39:43;;;;;;;10.70;5.90;;;;;;;2.42;85.35;99490.41;1453580;89;21886;-90
2021/12/01 07:42:11;;;;;;;10.90;5.30;;;;;;;2.60;84.72;99502.52;1460254;89;22228;-90
2021/12/01 07:44:37;;;;;;;10.40;6.50;;;;;;;2.66;84.79;99495.02;1459075;89;21966;-90
2021/12/01 07:47:05;;;;;;;7.63;5.50;;;;;;;2.66;84.79;99495.02;1442335;89;22091;-91
2021/12/01 07:49:34;;;;;;;6.67;4.37;;;;;;;2.74;84.30;99492.30;1460192;89;22350;-90
2021/12/01 07:52:04;;;;;;;10.70;5.47;;;;;;;2.78;83.05;99500.23;1474328;89;21875;-91
2021/12/01 07:54:30;;;;;;;12.53;6.40;;;;;;;2.81;83.38;99522.21;1455448;89;22014;-92
2021/12/01 07:56:57;;;;;;;9.37;5.90;;;;;;;2.81;83.38;99522.21;1462215;89;22161;-90
2021/12/01 07:59:24;;;;;;;11.37;5.97;;;;;;;2.84;83.49;99525.41;1461864;89;22222;-90
2021/12/01 08:01:50;;;;;;;6.87;4.50;;;;;;;2.92;82.80;99522.20;1461435;89;22246;-90
2021/12/01 08:04:16;;;;;;;8.87;5.50;;;;;;;2.92;82.80;99522.20;1453856;89;22271;-90
2021/12/01 08:06:45;;;;;;;8.30;5.83;;;;;;;3.02;82.24;99527.08;1438167;89;21888;-91
2021/12/01 08:09:12;;;;;;;12.70;6.30;;;;;;;3.00;82.30;99542.04;1450933;89;22255;-90
2021/12/01 08:11:40;;;;;;;12.87;6.70;;;;;;;3.05;82.47;99543.82;1463118;89;23675;-89
2021/12/01 08:14:06;;;;;;;15.20;6.83;;;;;;;3.05;82.47;99543.82;1451857;89;22055;-90
2021/12/01 08:16:37;;;;;;;12.57;6.13;;;;;;;3.22;82.07;99557.32;1454619;89;22296;-89
2021/12/01 08:19:05;;;;;;;7.40;5.05;;;;;;;3.34;81.89;99563.73;1461737;89;22173;-90
2021/12/01 08:21:33;;;;;;;6.43;4.90;;;;;;;3.51;81.36;99568.06;1459687;89;21406;-89
2021/12/01 08:23:59;;;;;;;7.87;5.90;;;;;;;3.65;80.29;99570.88;1457889;89;22445;-90
2021/12/01 08:26:26;;;;;;;13.03;5.33;;;;;;;3.88;79.51;99571.63;1435761;89;22365;-90
2021/12/01 08:28:52;;;;;;;6.67;3.97;;;;;;;3.88;79.51;99571.63;1462735;89;21399;-90
2021/12/01 08:31:20;;;;;;;6.90;4.03;;;;;;;3.97;79.41;99578.27;1450095;89;22173;-90
2021/12/01 08:33:48;;;;;;;8.17;4.33;;;;;;;4.05;77.70;99570.59;1466073;89;22439;-90
2021/12/01 08:36:15;;;;;;;6.07;4.00;;;;;;;4.15;78.26;99573.78;1459895;89;21561;-89
2021/12/01 08:38:44;;;;;;;7.83;5.07;;;;;;;4.29;77.67;99582.63;1456124;89;22387;-90
2021/12/01 08:41:12;;;;;;;7.87;5.17;;;;;;;4.40;77.61;99579.94;1458046;89;21466;-90
2021/12/01 08:43:38;;;;;;;11.53;3.83;;;;;;;4.55;77.52;99592.72;1463477;89;21576;-91
2021/12/01 08:46:07;;;;;;;10.13;4.93;;;;;;;4.64;76.44;99592.76;1452251;89;21435;-90
2021/12/01 08:48:34;;;;;;;4.67;3.43;;;;;;;4.70;75.24;99597.96;1456836;89;22800;-90
2021/12/01 08:51:02;;;;;;;3.77;2.43;;;;;;;4.69;74.68;99600.21;1461467;89;21545;-91
2021/12/01 08:53:36;;;;;;;6.10;3.23;;;;;;;4.71;74.43;99602.23;1460042;89;21478;-89
2021/12/01 08:56:03;;;;;;;6.17;3.57;;;;;;;4.72;75.10;99601.30;1453397;89;22448;-90
2021/12/01 08:58:32;;;;;;;4.20;2.90;;;;;;;4.75;75.23;99598.41;1454057;89;21769;-90
2021/12/01 09:00:58;;;;;;;3.73;2.23;;;;;;;4.81;75.65;99600.98;1466870;89;21404;-91
2021/12/01 09:03:25;;;;;;;3.53;2.40;;;;;;;4.79;74.13;99601.11;1455981;89;21583;-91
2021/12/01 09:05:53;;;;;;;3.97;2.33;;;;;;;4.79;74.52;99595.86;1455765;89;21503;-90
2021/12/01 09:08:23;;;;;;;3.77;2.67;;;;;;;4.81;74.06;99594.44;1500457;89;21538;-90
2021/12/01 09:10:56;;;;;;;5.77;2.90;;;;;;;4.85;74.55;99586.16;1457262;89;22484;-90
2021/12/01 09:13:25;;;;;;;3.70;2.00;;;;;;;4.93;73.22;99580.27;1451128;89;23040;-91
2021/12/01 09:15:53;;;;;;;7.10;2.50;;;;;;;4.95;73.34;99575.24;1456898;89;23124;-89
2021/12/01 09:18:22;;;;;;;6.60;2.87;;;;;;;4.98;73.48;99574.98;1429475;89;21407;-91
2021/12/01 09:20:48;;;;;;;2.60;1.93;;;;;;;5.01;72.54;99575.68;1452700;89;22535;-90
2021/12/01 09:23:15;;;;;;;4.63;2.60;;;;;;;5.09;73.08;99576.67;1456319;89;21451;-89
2021/12/01 09:25:44;;;;;;;5.83;3.73;;;;;;;5.20;73.05;99580.97;1452731;89;21693;-88
2021/12/01 09:28:15;;;;;;;4.70;3.13;;;;;;;5.36;73.64;99574.73;1455689;89;21636;-90
2021/12/01 09:30:41;;;;;;;6.58;2.90;;;;;;;5.61;71.49;99584.36;1459810;89;21664;-89
2021/12/01 09:33:08;;;;;;;9.93;3.37;;;;;;;6.42;70.57;99580.17;1455166;89;21642;-90
2021/12/01 09:35:35;;;;;;;3.63;2.00;;;;;;;7.12;68.23;99577.48;1454376;89;21516;-92
2021/12/01 09:38:01;;;;;;;2.87;1.93;;;;;;;7.78;65.39;99569.80;1445833;89;21540;-90
2021/12/01 09:40:28;;;;;;;2.83;1.80;;;;;;;8.41;66.57;99554.36;1458717;89;21626;-91
2021/12/01 09:42:55;;;;;;;8.47;2.83;;;;;;;9.06;64.98;99550.39;1445106;89;21457;-91
2021/12/01 09:45:25;;;;;;;3.60;1.80;;;;;;;9.55;63.35;99552.70;1454588;89;21531;-92
2021/12/01 09:47:52;;;;;;;3.20;1.93;;;;;;;9.90;58.67;99555.55;1447460;89;21458;-92
2021/12/01 09:50:19;;;;;;;3.20;2.10;;;;;;;10.25;59.96;99557.52;1475230;89;22433;-91
2021/12/01 09:52:46;;;;;;;3.87;2.50;;;;;;;10.47;60.00;99556.52;1468704;89;21523;-90
2021/12/01 09:55:14;;;;;;;5.57;2.50;;;;;;;10.57;56.71;99557.17;1460748;89;21553;-90
2021/12/01 09:58:03;;;;;;;4.00;3.33;;;;;;;10.63;56.43;99561.79;1459247;89;21656;-90
2021/12/01 10:00:31;;;;;;;5.13;2.20;;;;;;;10.72;56.75;99560.77;1436778;91;21656;-89
2021/12/01 10:02:59;;;;;;;7.63;3.47;;;;;;;10.79;55.74;99545.88;1406094;93;21445;-90
2021/12/01 10:06:09;;;;;;;4.70;3.20;;;;;;;11.00;56.35;99552.42;1421340;92;21614;-90
2021/12/01 10:08:49;;;;;;;5.83;3.17;;;;;;;10.96;52.82;99547.12;1406768;92;24123;-90
2021/12/01 10:11:24;;;;;;;8.40;4.00;;;;;;;10.94;53.43;99554.43;1438365;91;22545;-91
2021/12/01 10:14:08;;;;;;;8.37;3.73;;;;;;;10.88;53.21;99547.18;1453519;89;21479;-90
2021/12/01 10:16:39;;;;;;;4.40;2.80;;;;;;;10.89;53.72;99547.49;1458529;89;22603;-90
2021/12/01 10:19:09;;;;;;;3.30;2.45;;;;;;;10.94;54.04;99539.87;1441092;89;21515;-91
2021/12/01 10:21:47;;;;;;;3.15;2.40;;;;;;;10.97;52.15;99535.05;1438531;90;21464;-90
2021/12/01 10:24:17;;;;;;;3.60;2.67;;;;;;;10.99;53.59;99540.16;1436585;91;22498;-89
2021/12/01 10:26:51;;;;;;;10.98;4.20;;;;;;;10.91;52.00;99545.51;1429354;91;21559;-89
2021/12/01 10:29:29;;;;;;;8.50;3.83;;;;;;;10.98;53.86;99541.98;1434961;91;21637;-89
2021/12/01 10:32:09;;;;;;;7.20;4.27;;;;;;;10.95;52.35;99547.62;1435435;91;21611;-88
2021/12/01 10:34:53;;;;;;;5.92;2.83;;;;;;;10.69;52.67;99541.27;1435436;91;21590;-87
2021/12/01 10:37:29;;;;;;;7.87;3.23;;;;;;;10.34;52.47;99530.09;1434448;91;22462;-89
2021/12/01 10:40:14;;;;;;;6.93;4.10;;;;;;;10.31;53.34;99533.08;1425214;91;21693;-89
2021/12/01 10:43:07;;;;;;;5.93;2.77;;;;;;;10.35;52.80;99534.38;1438151;90;22358;-93
2021/12/01 10:45:38;;;;;;;4.37;2.07;;;;;;;10.38;53.03;99538.02;1459311;89;22447;-91
2021/12/01 10:48:08;;;;;;;8.80;2.35;;;;;;;10.11;53.38;99538.36;1452131;89;21567;-84
2021/12/01 10:50:39;;;;;;;4.10;2.92;;;;;;;10.00;53.29;99537.38;1439144;91;21598;-84
2021/12/01 10:53:11;;;;;;;;;;;;;;;9.99;53.04;99541.02;1438022;91;21569;-84
2021/12/01 10:55:54;;;;;;;8.87;2.57;;;;;;;9.68;51.32;99544.29;1431332;91;20873;-83
2021/12/01 10:58:22;;;;;;;3.90;1.93;;;;;;;9.66;53.09;99547.58;1431667;91;22320;-83
2021/12/01 11:00:53;;;;;;;7.73;2.40;;;;;;;9.67;53.98;99543.97;1437054;91;22313;-87
2021/12/01 11:03:24;;;;;;;6.37;2.90;;;;;;;9.60;52.98;99542.95;1442057;91;21507;-85
2021/12/01 11:05:55;;;;;;;8.27;3.47;;;;;;;9.50;52.55;99540.47;1440608;91;22352;-84
2021/12/01 11:08:25;;;;;;;;;;;;;;;9.55;52.84;99532.89;1451749;91;21574;-84
2021/12/01 11:11:14;;;;;;;3.57;2.37;;;;;;;9.58;53.40;99522.47;1433235;91;20185;-95
2021/12/01 11:13:46;;;;;;;5.80;2.57;;;;;;;9.43;54.17;99527.06;1436970;91;21494;-95
2021/12/01 11:16:14;;;;;;;6.27;2.37;;;;;;;9.12;53.75;99519.39;1435847;91;21420;-96
2021/12/01 11:21:24;;;;;;;6.20;2.67;;;;;;;8.51;55.51;99516.00;1475266;88;21662;-92
2021/12/01 11:23:56;;;;;;;4.53;2.50;;;;;;;8.25;55.67;99512.84;1465304;88;21397;-95
2021/12/01 11:26:29;;;;;;;10.83;3.93;;;;;;;8.02;56.62;99499.34;1464961;87;21635;-95
2021/12/01 11:29:16;;;;;;;8.23;3.20;;;;;;;7.89;57.11;99493.67;1449440;90;21495;-94
2021/12/01 11:31:46;;;;;;;8.70;2.80;;;;;;;7.72;57.87;99488.76;1395686;87;21986;-94
2021/12/01 11:34:17;;;;;;;10.07;2.73;;;;;;;7.53;58.54;99488.91;1438214;87;21598;-94
2021/12/01 11:36:52;;;;;;;7.22;2.72;;;;;;;7.37;58.78;99482.52;1452232;89;21577;-96
2021/12/01 11:39:27;;;;;;;7.30;2.83;;;;;;;7.17;59.20;99493.67;1489726;87;21564;-94
2021/12/01 11:42:01;;;;;;;6.77;3.20;;;;;;;7.03;59.75;99487.60;1482104;87;22312;-93
2021/12/01 11:44:30;;;;;;;9.07;2.97;;;;;;;6.85;60.09;99475.73;1457109;85;21518;-95
2021/12/01 11:46:56;;;;;;;8.17;3.03;;;;;;;6.76;60.33;99468.23;1441146;89;22593;-94
2021/12/01 11:49:24;;;;;;;10.20;3.50;;;;;;;6.69;60.84;99456.62;1453833;89;21347;-95
2021/12/01 11:52:04;;;;;;;5.83;3.23;;;;;;;6.69;61.36;99438.72;1455561;89;21370;-95
2021/12/01 11:54:46;;;;;;;6.73;3.00;;;;;;;6.71;61.36;99429.71;1455586;89;21459;-94
2021/12/01 11:57:14;;;;;;;8.60;3.20;;;;;;;6.75;61.88;99433.69;1429273;90;21429;-93
2021/12/01 11:59:48;;;;;;;6.40;3.03;;;;;;;6.75;61.44;99432.86;1433646;91;21414;-94
2021/12/01 12:02:25;;;;;;;7.47;3.63;;;;;;;6.79;62.01;99432.92;1437564;90;21488;-94
2021/12/01 12:04:57;;;;;;;7.73;3.83;;;;;;;6.86;61.96;99427.89;1417295;91;21298;-95
2021/12/01 12:07:32;;;;;;;5.47;3.10;;;;;;;6.96;61.62;99426.86;1424439;89;21537;-93
2021/12/01 12:10:16;;;;;;;5.30;1.93;;;;;;;7.07;61.44;99429.75;1450283;89;22742;-93
2021/12/01 12:13:04;;;;;;;6.93;3.10;;;;;;;7.13;60.48;99427.83;1463847;89;21577;-93
2021/12/01 12:15:41;;;;;;;7.17;2.73;;;;;;;7.13;61.01;99425.20;1456822;89;21636;-93
2021/12/01 12:18:13;;;;;;;12.07;3.60;;;;;;;7.05;61.12;99433.03;1460341;89;21577;-94
2021/12/01 12:20:50;;;;;;;5.00;3.17;;;;;;;6.93;61.36;99426.31;1442185;89;21503;-92
2021/12/01 12:23:11;;;;;;;11.20;3.02;;;;;;;6.83;61.49;99437.40;1448371;89;21525;-92
2021/12/01 12:25:52;;;;;;;8.77;2.73;;;;;;;6.71;61.90;99432.34;1457881;89;21558;-92
2021/12/01 12:28:38;;;;;;;6.77;2.63;;;;;;;6.59;62.13;99426.95;1467523;89;21613;-93
2021/12/01 12:31:19;;;;;;;8.57;2.93;;;;;;;6.49;62.70;99426.16;1463810;89;21444;-93
2021/12/01 12:33:52;;;;;;;5.70;3.08;;;;;;;6.41;62.68;99432.13;1464346;89;22338;-92
2021/12/01 12:36:39;;;;;;;16.33;5.83;;;;;;;6.32;62.30;99423.80;1461946;89;21657;-93
2021/12/01 12:39:21;;;;;;;19.33;9.77;;;;;;;6.24;62.54;99423.23;1457572;89;21521;-91
2021/12/01 12:42:04;;;;;;;11.13;4.47;;;;;;;6.17;63.20;99430.02;1455432;89;21452;-92
2021/12/01 12:44:34;;;;;;;5.67;2.90;;;;;;;6.08;63.43;99423.00;1447818;89;21390;-93
2021/12/01 12:47:40;;;;;;;16.07;3.55;;;;;;;6.03;64.19;99426.05;1472162;88;22818;-93
2021/12/01 12:50:15;;;;;;;7.40;3.27;;;;;;;5.98;64.60;99430.07;1429743;90;22292;-93
2021/12/01 12:52:52;;;;;;;7.33;2.53;;;;;;;5.94;64.82;99435.28;1409691;91;21524;-92
2021/12/01 12:55:27;;;;;;;7.20;3.20;;;;;;;5.94;64.90;99436.59;1422932;91;21427;-91
2021/12/01 12:57:58;;;;;;;9.33;3.20;;;;;;;5.91;65.25;99428.48;1422333;92;21559;-92
2021/12/01 13:00:47;;;;;;;9.13;3.20;;;;;;;5.95;65.43;99423.30;1423833;92;21659;-91
2021/12/01 13:03:28;;;;;;;9.60;4.10;;;;;;;5.97;65.37;99424.48;1433098;92;21473;-93
2021/12/01 13:06:09;;;;;;;7.70;3.83;;;;;;;6.00;65.21;99416.31;1423413;92;22476;-93
2021/12/01 13:08:40;;;;;;;9.00;3.92;;;;;;;6.00;65.33;99413.69;1423029;92;21658;-93
2021/12/01 13:11:15;;;;;;;8.97;3.60;;;;;;;6.00;65.69;99408.44;1421348;92;21443;-95
2021/12/01 13:13:46;;;;;;;9.93;3.97;;;;;;;5.97;66.09;99401.67;1420182;92;21635;-94
2021/12/01 13:16:16;;;;;;;8.05;3.87;;;;;;;5.96;66.50;99405.77;1417056;92;21613;-94
2021/12/01 13:18:45;;;;;;;13.00;4.85;;;;;;;5.95;67.20;99402.78;1418247;92;21510;-94
2021/12/01 13:21:17;;;;;;;7.67;4.10;;;;;;;5.94;67.15;99407.70;1416630;90;21613;-94
2021/12/01 13:23:49;;;;;;;7.10;3.53;;;;;;;5.93;67.69;99405.99;1396110;93;21443;-94
2021/12/01 13:26:21;;;;;;;3.77;2.90;;;;;;;5.96;68.10;99413.65;1424269;92;21494;-93
2021/12/01 13:29:08;;;;;;;9.70;3.97;;;;;;;5.99;68.22;99413.36;1416685;92;21428;-92
2021/12/01 13:31:42;;;;;;;7.43;4.10;;;;;;;5.99;68.41;99412.05;1415433;92;21471;-95
2021/12/01 13:34:22;;;;;;;8.83;4.53;;;;;;;5.99;68.45;99415.98;1442378;91;21581;-95
2021/12/01 13:37:01;;;;;;;15.73;6.40;;;;;;;5.97;68.27;99410.86;1433693;90;22475;-94
2021/12/01 13:39:36;;;;;;;17.73;8.87;;;;;;;5.97;68.57;99409.55;1432433;91;21471;-92
2021/12/01 13:42:08;;;;;;;13.43;6.57;;;;;;;5.95;68.87;99402.78;1437009;91;21507;-95
2021/12/01 13:44:39;;;;;;;12.87;5.93;;;;;;;5.96;69.37;99401.83;1424244;91;22336;-94
2021/12/01 13:47:19;;;;;;;23.70;7.22;;;;;;;5.97;69.37;99406.92;1424370;91;21492;-91
2021/12/01 13:49:57;;;;;;;16.80;7.12;;;;;;;5.99;69.34;99397.11;1413253;94;21567;-93
2021/12/01 13:52:44;;;;;;;16.27;7.63;;;;;;;5.99;69.95;99404.17;1434998;92;21449;-93
2021/12/01 13:55:23;;;;;;;18.93;9.20;;;;;;;6.00;69.98;99390.05;1416610;91;21597;-94
2021/12/01 13:57:58;;;;;;;14.63;8.00;;;;;;;5.98;70.66;99391.98;1398574;91;21501;-93
2021/12/01 14:00:50;;;;;;;10.73;7.50;;;;;;;5.98;71.08;99386.73;1426181;91;22751;-93
2021/12/01 14:03:19;;;;;;;9.10;5.10;;;;;;;5.97;72.22;99392.97;1417649;92;22526;-93
2021/12/01 14:05:50;;;;;;;9.93;4.57;;;;;;;5.95;73.41;99389.16;1426719;90;21448;-92
2021/12/01 14:08:31;;;;;;;;;;;;;;;5.94;73.41;99389.31;1424614;92;21478;-93
2021/12/01 14:11:09;;;;;;;9.80;4.90;;;;;;;5.91;74.08;99395.65;1413855;92;20789;-93
2021/12/01 14:13:35;;;;;;;9.37;4.77;;;;;;;5.87;74.10;99397.73;1401443;93;21519;-94
2021/12/01 14:16:03;;;;;;;7.73;4.63;;;;;;;5.85;74.48;99394.42;1404210;94;21449;-94
2021/12/01 14:18:31;;;;;;;6.57;3.83;;;;;;;5.87;74.63;99389.86;1418891;92;21501;-93
2021/12/01 14:21:15;;;;;;;7.70;3.83;;;;;;;5.89;75.20;99397.09;1424659;91;21530;-95
2021/12/01 14:23:54;;;;;;;7.63;3.00;;;;;;;5.91;75.61;99393.02;1412347;92;21515;-91
2021/12/01 14:26:35;;;;;;;15.83;7.17;;;;;;;5.95;75.64;99392.27;1422689;91;21420;-94
2021/12/01 14:29:08;;;;;;;7.47;4.23;;;;;;;5.97;75.83;99392.48;1426883;92;21448;-92
2021/12/01 14:31:38;;;;;;;28.33;13.33;;;;;;;5.96;76.47;99390.02;1422095;92;21494;-94
2021/12/01 14:34:19;;;;;;;10.40;4.20;;;;;;;5.96;76.71;99380.82;1408519;93;21725;-94
2021/12/01 14:36:49;;;;;;;10.00;4.42;;;;;;;5.97;77.02;99382.47;1409553;93;21525;-95
2021/12/01 14:39:18;;;;;;;7.63;3.97;;;;;;;5.97;77.64;99378.52;1389680;91;21555;-89
2021/12/01 14:41:49;;;;;;;10.17;4.60;;;;;;;5.98;77.34;99377.05;1391177;91;21554;-89
2021/12/01 14:44:19;;;;;;;11.75;4.97;;;;;;;5.96;78.13;99375.56;1426054;91;22596;-89
2021/12/01 14:46:48;;;;;;;6.47;3.73;;;;;;;5.95;78.41;99369.95;1442870;90;22288;-88
2021/12/01 14:49:17;;;;;;;9.03;4.03;;;;;;;5.96;78.28;99371.62;1442691;90;21515;-88
2021/12/01 14:51:50;;;;;;;8.53;4.47;;;;;;;5.95;78.78;99366.02;1436508;90;21537;-90
2021/12/01 14:54:25;;;;;;;9.53;5.30;;;;;;;5.95;78.94;99366.02;1446224;90;21478;-90
2021/12/01 14:57:11;;;;;;;10.27;6.80;;;;;;;5.94;78.81;99367.00;1438940;90;21714;-93
2021/12/01 14:59:45;;;;;;;9.37;6.80;;;;;;;5.89;80.05;99361.64;1423777;90;22243;-88
2021/12/01 15:02:20;;;;;;;6.67;4.50;;;;;;;5.87;80.27;99360.98;1439561;90;21633;-89
2021/12/01 15:05:20;;;;;;;7.20;5.07;;;;;;;5.86;80.77;99359.79;1411630;90;21702;-89
2021/12/01 15:08:06;;;;;;;9.17;5.03;;;;;;;5.85;81.06;99354.20;1443739;89;21426;-89
2021/12/01 15:10:46;;;;;;;7.70;4.87;;;;;;;5.86;80.79;99356.67;1463133;89;21688;-89
2021/12/01 15:13:20;;;;;;;8.70;4.30;;;;;;;5.86;81.08;99352.73;1431668;90;21500;-88
2021/12/01 15:16:26;;;;;;;5.97;4.57;;;;;;;5.87;81.31;99356.22;1434912;90;21411;-89
2021/12/01 15:19:03;;;;;;;8.57;5.20;;;;;;;5.88;81.09;99353.43;1437124;90;21626;-89
2021/12/01 15:21:31;;;;;;;11.27;5.00;;;;;;;5.87;81.67;99345.70;1428608;90;21434;-89
2021/12/01 15:24:03;;;;;;;10.97;4.93;;;;;;;5.85;82.02;99343.22;1444519;90;21456;-89
2021/12/01 15:26:45;;;;;;;9.87;6.23;;;;;;;5.82;82.85;99339.56;1444089;90;22624;-89
2021/12/01 15:29:20;;;;;;;11.90;6.43;;;;;;;5.83;82.77;99335.13;1450515;90;21499;-88
2021/12/01 15:31:59;;;;;;;8.47;5.63;;;;;;;5.84;82.94;99328.91;1439125;90;21691;-89
2021/12/01 15:34:27;;;;;;;10.87;5.73;;;;;;;5.82;83.43;99330.86;1414880;90;21507;-90
2021/12/01 15:36:55;;;;;;;9.90;5.10;;;;;;;5.81;83.57;99327.42;1419723;91;21751;-89
2021/12/01 15:39:25;;;;;;;8.17;5.07;;;;;;;5.83;83.21;99329.39;1421974;92;21471;-89
2021/12/01 15:41:57;;;;;;;9.13;5.40;;;;;;;5.82;83.61;99334.80;1420557;92;22431;-89
2021/12/01 15:44:26;;;;;;;8.57;6.07;;;;;;;5.84;83.04;99332.38;1427152;90;21619;-88
2021/12/01 15:46:54;;;;;;;13.97;8.10;;;;;;;5.85;83.01;99334.02;1434388;90;21685;-88
2021/12/01 15:49:22;;;;;;;19.53;10.87;;;;;;;5.85;83.11;99328.77;1434040;90;21522;-87
2021/12/01 15:51:51;;;;;;;14.43;8.83;;;;;;;5.87;82.95;99329.95;1446270;90;21449;-89
2021/12/01 15:54:21;;;;;;;10.80;7.10;;;;;;;5.89;82.76;99326.67;1439179;90;21501;-88
2021/12/01 15:56:56;;;;;;;13.50;9.17;;;;;;;5.91;82.64;99323.92;1418254;92;22365;-88
2021/12/01 15:59:22;;;;;;;15.33;9.47;;;;;;;5.88;82.77;99311.91;1440598;89;21485;-88
2021/12/01 16:01:49;;;;;;;14.50;9.50;;;;;;;5.89;82.79;99308.30;1418029;92;21509;-88
2021/12/01 16:04:18;;;;;;;18.50;10.93;;;;;;;5.87;83.02;99305.83;1398199;92;21433;-88
2021/12/01 16:06:46;;;;;;;18.50;10.97;;;;;;;5.88;82.69;99308.78;1434608;89;21404;-88
2021/12/01 16:09:18;;;;;;;13.30;8.00;;;;;;;5.88;82.82;99302.71;1440712;90;21555;-89
2021/12/01 16:11:45;;;;;;;;;;;;;;;5.87;83.02;99305.83;1454279;90;21498;-88
2021/12/01 16:14:17;;;;;;;11.63;7.00;;;;;;;5.89;83.13;99309.11;1461598;90;20332;-89
2021/12/01 16:16:45;;;;;;;11.93;8.70;;;;;;;5.91;83.11;99304.22;1413081;91;21419;-88
2021/12/01 16:19:12;;;;;;;10.23;7.13;;;;;;;5.89;83.20;99303.86;1434585;90;22344;-89
2021/12/01 16:21:39;;;;;;;13.37;7.40;;;;;;;5.92;83.03;99303.23;1440254;90;21574;-89
2021/12/01 16:24:06;;;;;;;8.57;5.50;;;;;;;5.94;83.02;99307.41;1453626;90;22246;-89
2021/12/01 16:26:34;;;;;;;10.17;6.23;;;;;;;5.96;82.95;99290.21;1448732;89;21486;-89
2021/12/01 16:29:02;;;;;;;8.77;5.00;;;;;;;5.97;82.68;99293.98;1444413;90;21485;-88
2021/12/01 16:31:29;;;;;;;8.70;5.13;;;;;;;6.00;82.60;99300.27;1417644;92;21485;-88
2021/12/01 16:33:57;;;;;;;7.23;4.50;;;;;;;6.01;82.34;99291.89;1428116;90;21507;-87
2021/12/01 16:36:27;;;;;;;6.47;4.23;;;;;;;6.04;82.23;99295.53;1446419;90;22047;-87
2021/12/01 16:38:56;;;;;;;11.20;6.43;;;;;;;6.06;81.80;99290.48;1442988;90;21610;-87
2021/12/01 16:41:25;;;;;;;8.73;4.97;;;;;;;6.10;81.55;99292.35;1413160;92;21455;-88
2021/12/01 16:43:53;;;;;;;7.90;5.07;;;;;;;6.15;81.17;99295.34;1419232;90;22225;-86
2021/12/01 16:46:24;;;;;;;8.13;5.87;;;;;;;6.19;80.93;99295.41;1426200;91;21522;-89
2021/12/01 16:48:53;;;;;;;7.72;5.78;;;;;;;6.21;80.35;99285.55;1411414;93;21464;-88
2021/12/01 16:51:22;;;;;;;8.33;4.97;;;;;;;6.25;79.91;99289.55;1422300;91;22602;-87
2021/12/01 16:53:51;;;;;;;9.53;4.90;;;;;;;6.27;79.65;99293.33;1430186;90;21479;-88
2021/12/01 16:56:25;;;;;;;7.90;5.63;;;;;;;6.28;79.03;99284.50;1448568;90;21531;-87
2021/12/01 16:58:52;;;;;;;11.30;5.67;;;;;;;6.29;78.75;99279.08;1434750;90;22381;-90
2021/12/01 17:01:20;;;;;;;12.80;5.77;;;;;;;6.33;78.83;99280.45;1426581;91;21627;-91
2021/12/01 17:03:54;;;;;;;13.40;7.33;;;;;;;6.35;78.43;99279.47;1445480;90;21399;-93
2021/12/01 17:06:26;;;;;;;10.87;6.87;;;;;;;6.36;78.11;99277.16;1444248;90;21449;-92
2021/12/01 17:08:45;;;;;;;10.57;5.90;;;;;;;6.37;78.07;99272.27;1443112;90;21538;-88
2021/12/01 17:11:16;;;;;;;10.00;5.80;;;;;;;6.37;77.41;99271.77;1455061;90;21501;-87
2021/12/01 17:13:44;;;;;;;10.95;5.87;;;;;;;6.38;77.02;99252.89;1446777;90;21567;-88
2021/12/01 17:16:14;;;;;;;12.23;6.63;;;;;;;6.40;77.26;99249.14;1445663;90;21501;-87
2021/12/01 17:18:47;;;;;;;15.53;8.50;;;;;;;6.41;77.08;99249.95;1442545;90;21516;-88
2021/12/01 17:21:14;;;;;;;9.30;6.33;;;;;;;6.41;76.76;99244.20;1447845;90;22337;-87
2021/12/01 17:23:44;;;;;;;12.85;6.40;;;;;;;6.40;76.44;99244.38;1458276;90;22569;-87
2021/12/01 17:26:13;;;;;;;8.60;5.87;;;;;;;6.41;76.72;99238.95;1420437;89;21493;-87
2021/12/01 17:28:42;;;;;;;9.10;5.27;;;;;;;6.40;76.61;99232.05;1429846;91;21652;-88
2021/12/01 17:33:38;;;;;;;6.13;4.50;;;;;;;6.40;77.00;99237.31;1435007;90;21463;-88
2021/12/01 17:36:05;;;;;;;7.20;4.53;;;;;;;6.39;76.92;99236.98;1446345;90;21479;-88
2021/12/01 17:38:34;;;;;;;9.13;5.00;;;;;;;6.41;76.95;99235.50;1449652;90;21493;-88
2021/12/01 17:41:02;;;;;;;13.93;5.67;;;;;;;6.43;76.88;99230.93;1448418;90;21657;-88
2021/12/01 17:43:30;;;;;;;7.13;4.80;;;;;;;6.44;76.60;99228.63;1442223;90;21626;-88
2021/12/01 17:46:00;;;;;;;11.60;6.20;;;;;;;6.47;76.65;99227.02;1439932;89;21600;-88
2021/12/01 17:48:30;;;;;;;7.73;5.53;;;;;;;6.50;76.59;99217.51;1427893;90;21642;-88
2021/12/01 17:51:00;;;;;;;9.73;6.35;;;;;;;6.54;76.66;99218.88;1417026;91;21681;-87
2021/12/01 17:53:27;;;;;;;8.57;6.13;;;;;;;6.55;76.44;99220.02;1424103;91;22538;-87
2021/12/01 17:55:54;;;;;;;8.77;5.37;;;;;;;6.59;76.48;99210.05;1422664;91;21571;-88
2021/12/01 17:58:22;;;;;;;10.43;4.87;;;;;;;6.59;76.12;99203.48;1393205;92;21464;-89
2021/12/01 18:00:52;;;;;;;9.43;5.23;;;;;;;6.64;75.95;99203.01;1411018;91;21340;-91
2021/12/01 18:03:20;;;;;;;8.43;5.20;;;;;;;6.65;75.65;99200.24;1425115;91;21480;-89
2021/12/01 18:05:47;;;;;;;9.00;5.63;;;;;;;6.67;75.65;99196.95;1426531;91;21509;-88
2021/12/01 18:08:15;;;;;;;10.43;5.97;;;;;;;6.67;75.32;99191.69;1413099;91;21488;-89
2021/12/01 18:10:43;;;;;;;11.07;4.80;;;;;;;6.69;75.29;99204.20;1384965;93;21585;-91
2021/12/01 18:13:14;;;;;;;10.90;5.80;;;;;;;6.69;75.21;99212.59;1399026;93;21659;-88
2021/12/01 18:15:42;;;;;;;10.70;6.12;;;;;;;6.73;75.35;99217.40;1413179;92;21574;-89
2021/12/01 18:18:11;;;;;;;10.07;5.97;;;;;;;6.75;75.13;99220.68;1415338;91;21675;-88
2021/12/01 18:20:39;;;;;;;11.10;6.47;;;;;;;6.75;74.67;99223.31;1416204;91;21463;-90
2021/12/01 18:23:07;;;;;;;12.90;5.07;;;;;;;6.77;74.56;99220.05;1416016;91;23788;-88
2021/12/01 18:25:35;;;;;;;12.30;6.83;;;;;;;6.76;74.22;99228.92;1411104;92;21700;-88
2021/12/01 18:28:02;;;;;;;11.27;6.73;;;;;;;6.80;74.23;99228.63;1410980;91;21575;-88
2021/12/01 18:30:30;;;;;;;10.63;6.43;;;;;;;6.80;74.32;99224.67;1413409;92;22149;-89
2021/12/01 18:33:02;;;;;;;12.37;7.17;;;;;;;6.76;74.01;99211.84;1436699;90;21655;-88
2021/12/01 18:35:27;;;;;;;9.03;5.87;;;;;;;6.80;74.04;99212.84;1394838;93;21868;-90
2021/12/01 18:37:54;;;;;;;11.00;6.87;;;;;;;6.82;74.00;99222.70;1398173;92;21434;-90
2021/12/01 18:40:22;;;;;;;11.70;6.00;;;;;;;6.81;73.77;99221.88;1417444;92;21567;-88
2021/12/01 18:42:50;;;;;;;10.33;5.20;;;;;;;6.80;73.66;99224.18;1417132;91;21522;-91
2021/12/01 18:45:19;;;;;;;8.50;5.63;;;;;;;6.81;73.77;99228.95;1399877;93;21658;-89
2021/12/01 18:47:51;;;;;;;9.90;6.47;;;;;;;6.80;73.87;99228.63;1393281;93;21648;-88
2021/12/01 18:50:21;;;;;;;11.27;7.13;;;;;;;6.76;73.41;99224.98;1420691;90;21931;-90
2021/12/01 18:52:48;;;;;;;11.67;5.93;;;;;;;6.73;73.41;99226.61;1456196;90;21463;-89